Time;durP1;ratioP1;P1;durP2;ratioP2;P2;SDS_P1;SDS_P2;PMS_P1;PMS_P2;Temp;Humidity;BMP_temperature;BMP_pressure;BME280_temperature;BME280_humidity;BME280_pressure;Samples;Min_cycle;Max_cycle;Signal;HPM_P1;HPM_P2
2022/07/13 00:02:22;;;;;;;3.50;1.80;;;22.40;99.90;;;;;;5077208;28;20044;-75
2022/07/13 00:04:48;;;;;;;2.50;1.83;;;22.40;99.90;;;;;;5078141;28;20037;-75
2022/07/13 00:07:14;;;;;;;5.78;1.80;;;22.40;99.90;;;;;;5078051;28;20120;-75
2022/07/13 00:09:39;;;;;;;2.53;1.80;;;22.40;99.90;;;;;;5077017;28;20044;-75
2022/07/13 00:12:05;;;;;;;2.65;1.70;;;22.40;99.90;;;;;;5110731;28;20040;-75
2022/07/13 00:14:31;;;;;;;3.75;1.70;;;22.40;99.90;;;;;;5093707;28;20036;-75
2022/07/13 00:16:57;;;;;;;2.10;1.70;;;22.40;99.90;;;;;;5077984;28;20068;-75
2022/07/13 00:19:22;;;;;;;2.72;1.90;;;22.40;99.90;;;;;;5077959;28;20110;-75
2022/07/13 00:21:50;;;;;;;3.72;1.75;;;22.40;99.90;;;;;;5078081;28;20337;-75
2022/07/13 00:24:16;;;;;;;1.92;1.40;;;22.30;99.90;;;;;;5076294;28;20444;-75
2022/07/13 00:26:42;;;;;;;3.60;1.85;;;22.30;99.90;;;;;;5076508;28;20049;-75
2022/07/13 00:29:08;;;;;;;4.07;2.13;;;22.20;99.90;;;;;;5076453;28;20135;-75
2022/07/13 00:31:34;;;;;;;3.63;1.77;;;22.20;99.90;;;;;;5110411;28;20041;-75
2022/07/13 00:33:59;;;;;;;3.17;1.77;;;22.20;99.90;;;;;;5110065;28;20425;-75
2022/07/13 00:36:25;;;;;;;3.15;1.75;;;22.10;99.90;;;;;;5093411;28;20090;-75
2022/07/13 00:38:51;;;;;;;1.58;1.40;;;22.10;99.90;;;;;;5077734;28;20105;-75
2022/07/13 00:41:16;;;;;;;4.65;1.80;;;22.20;99.90;;;;;;5076489;28;20441;-75
2022/07/13 00:43:42;;;;;;;2.10;1.90;;;22.20;99.90;;;;;;5077348;28;20418;-75
2022/07/13 00:46:09;;;;;;;2.28;1.98;;;22.20;99.90;;;;;;5077161;28;20048;-75
2022/07/13 00:48:37;;;;;;;2.38;1.88;;;22.20;99.90;;;;;;5077619;28;20045;-75
2022/07/13 00:51:03;;;;;;;2.80;2.10;;;22.30;99.90;;;;;;5092891;28;20090;-75
2022/07/13 00:53:30;;;;;;;3.22;2.25;;;22.20;99.90;;;;;;5075774;28;20427;-75
2022/07/13 00:55:56;;;;;;;2.92;2.00;;;22.20;99.90;;;;;;5077019;28;20045;-75
2022/07/13 00:58:22;;;;;;;3.78;2.30;;;22.20;99.90;;;;;;5093116;28;20048;-75
2022/07/13 01:00:48;;;;;;;4.07;1.85;;;22.20;99.90;;;;;;5077055;28;20048;-75
2022/07/13 01:03:14;;;;;;;2.17;1.80;;;22.20;99.90;;;;;;5077117;28;20040;-75
2022/07/13 01:05:40;;;;;;;2.63;2.00;;;22.30;99.90;;;;;;5076988;28;20090;-75
2022/07/13 01:08:06;;;;;;;4.15;2.83;;;22.20;99.90;;;;;;5076933;28;20373;-75
2022/07/13 01:10:33;;;;;;;3.50;2.08;;;22.20;99.90;;;;;;5077141;28;20115;-75
2022/07/13 01:12:59;;;;;;;2.40;2.20;;;22.20;99.90;;;;;;5077050;28;20120;-75
2022/07/13 01:15:26;;;;;;;3.88;2.75;;;22.10;99.90;;;;;;5077094;28;20389;-75
2022/07/13 01:17:52;;;;;;;2.65;2.10;;;22.20;99.90;;;;;;5076734;28;20106;-75
2022/07/13 01:20:18;;;;;;;4.13;2.10;;;22.20;99.90;;;;;;5075685;28;20461;-75
2022/07/13 01:22:51;;;;;;;3.15;2.10;;;22.20;99.90;;;;;;5075288;28;20393;-75
2022/07/13 01:25:18;;;;;;;6.63;2.88;;;22.20;99.90;;;;;;5075262;28;20114;-75
2022/07/13 01:27:47;;;;;;;5.47;3.28;;;22.20;99.90;;;;;;5075691;28;20433;-75
2022/07/13 01:30:13;;;;;;;3.28;2.50;;;22.20;99.90;;;;;;5076882;28;20040;-75
2022/07/13 01:32:50;;;;;;;5.93;3.58;;;22.30;99.90;;;;;;5076864;28;20072;-75
2022/07/13 01:35:17;;;;;;;3.72;2.80;;;22.30;99.90;;;;;;5076554;28;20098;-75
2022/07/13 01:37:44;;;;;;;4.78;3.05;;;22.20;99.90;;;;;;5076796;28;20400;-75
2022/07/13 01:40:11;;;;;;;4.07;3.47;;;22.30;99.90;;;;;;5075552;28;20036;-75
2022/07/13 01:42:47;;;;;;;7.00;4.10;;;22.30;99.90;;;;;;5076446;28;20040;-75
2022/07/13 01:45:15;;;;;;;5.43;3.60;;;22.30;99.90;;;;;;5075975;28;20039;-75
2022/07/13 01:47:42;;;;;;;5.72;4.22;;;22.40;99.90;;;;;;5076380;28;20044;-75
2022/07/13 01:50:10;;;;;;;3.85;3.35;;;22.40;99.90;;;;;;5076557;28;20417;-75
2022/07/13 01:52:36;;;;;;;6.28;4.35;;;22.40;99.90;;;;;;5076102;28;20044;-75
2022/07/13 01:55:07;;;;;;;4.35;3.92;;;22.40;99.90;;;;;;5075208;28;20037;-75
2022/07/13 01:57:33;;;;;;;9.07;5.35;;;22.40;99.90;;;;;;5075075;28;20123;-75
2022/07/13 02:00:06;;;;;;;6.47;3.47;;;22.30;99.90;;;;;;5076386;28;20116;-75
2022/07/13 02:02:32;;;;;;;4.85;3.53;;;22.30;99.90;;;;;;5108976;28;20036;-76
2022/07/13 02:04:58;;;;;;;4.40;3.50;;;22.30;99.90;;;;;;5076303;28;20040;-75
2022/07/13 02:07:23;;;;;;;6.15;4.32;;;22.40;99.90;;;;;;5076435;28;20047;-75
2022/07/13 02:09:49;;;;;;;5.32;4.00;;;22.30;99.90;;;;;;5076185;28;20040;-75
2022/07/13 02:12:16;;;;;;;7.28;4.50;;;22.30;99.90;;;;;;5075262;28;20340;-75
2022/07/13 02:14:42;;;;;;;8.65;5.10;;;22.40;99.90;;;;;;5076056;28;20032;-75
2022/07/13 02:17:08;;;;;;;7.40;5.50;;;22.40;99.90;;;;;;5076175;28;20075;-75
2022/07/13 02:19:33;;;;;;;6.00;4.70;;;22.30;99.90;;;;;;5092182;28;20129;-75
2022/07/13 02:21:59;;;;;;;8.70;6.03;;;22.40;99.90;;;;;;5076193;28;20047;-75
2022/07/13 02:24:25;;;;;;;10.90;7.13;;;22.40;99.90;;;;;;5074507;28;20089;-75
2022/07/13 02:26:50;;;;;;;7.22;5.53;;;22.40;99.90;;;;;;5075661;28;20048;-75
2022/07/13 02:29:16;;;;;;;8.23;6.20;;;22.40;99.90;;;;;;5075035;28;20040;-75
2022/07/13 02:31:42;;;;;;;9.00;6.72;;;22.40;99.90;;;;;;5091941;28;20127;-76
2022/07/13 02:34:08;;;;;;;10.40;6.80;;;22.40;99.90;;;;;;5075181;28;20364;-75
2022/07/13 02:36:33;;;;;;;10.30;6.57;;;22.40;99.90;;;;;;5074838;28;20044;-75
2022/07/13 02:38:59;;;;;;;7.93;5.95;;;22.40;99.90;;;;;;5076048;28;20051;-75
2022/07/13 02:41:25;;;;;;;8.35;6.45;;;22.50;99.90;;;;;;5075071;28;20045;-75
2022/07/13 02:43:50;;;;;;;9.50;6.65;;;22.40;99.90;;;;;;5075072;28;20486;-75
2022/07/13 02:46:16;;;;;;;7.63;6.47;;;22.40;99.90;;;;;;5075753;28;20044;-75
2022/07/13 02:48:42;;;;;;;8.05;5.82;;;22.40;99.90;;;;;;5108822;28;20051;-75
2022/07/13 02:51:07;;;;;;;10.20;7.60;;;22.40;99.90;;;;;;5074931;28;20059;-75
2022/07/13 02:53:33;;;;;;;8.93;6.75;;;22.30;99.90;;;;;;5075439;28;20077;-75
2022/07/13 02:55:58;;;;;;;9.60;6.13;;;22.40;99.90;;;;;;5076214;28;20040;-75
2022/07/13 02:58:25;;;;;;;7.13;5.82;;;22.50;99.90;;;;;;5078296;28;20048;-75
2022/07/13 03:00:51;;;;;;;13.18;6.43;;;22.50;99.90;;;;;;5079592;28;20044;-76
2022/07/13 03:03:17;;;;;;;7.07;6.30;;;22.40;99.90;;;;;;5112090;28;20059;-75
2022/07/13 03:05:42;;;;;;;8.60;5.97;;;22.40;99.90;;;;;;5095146;28;20037;-75
2022/07/13 03:08:08;;;;;;;7.63;6.38;;;22.40;99.90;;;;;;5079199;28;20040;-75
2022/07/13 03:10:33;;;;;;;14.13;6.95;;;22.50;99.90;;;;;;5079425;28;20076;-75
2022/07/13 03:12:59;;;;;;;15.13;7.47;;;22.50;99.90;;;;;;5078422;28;20032;-75
2022/07/13 03:15:25;;;;;;;7.55;5.47;;;22.50;99.90;;;;;;5079001;28;20033;-75
2022/07/13 03:17:50;;;;;;;12.57;7.82;;;22.40;99.90;;;;;;5094770;28;20444;-75
2022/07/13 03:20:16;;;;;;;6.63;5.68;;;22.50;99.90;;;;;;5079133;28;20097;-75
2022/07/13 03:22:42;;;;;;;8.10;6.47;;;22.50;99.90;;;;;;5077255;28;20036;-75
2022/07/13 03:25:08;;;;;;;7.78;6.10;;;22.50;99.90;;;;;;5078704;28;20055;-75
2022/07/13 03:27:34;;;;;;;11.80;6.50;;;22.60;99.90;;;;;;5078869;28;20048;-75
2022/07/13 03:30:00;;;;;;;8.40;6.65;;;22.60;99.90;;;;;;5077823;28;20086;-76
2022/07/13 03:32:26;;;;;;;9.25;6.70;;;22.60;99.90;;;;;;5077530;28;20040;-75
2022/07/13 03:34:52;;;;;;;10.02;6.60;;;22.60;99.90;;;;;;5078951;28;20043;-75
2022/07/13 03:37:18;;;;;;;9.13;6.20;;;22.50;99.90;;;;;;5078613;28;20056;-75
2022/07/13 03:39:43;;;;;;;8.75;5.80;;;22.40;99.90;;;;;;5079006;28;20117;-75
2022/07/13 03:42:09;;;;;;;10.43;7.03;;;22.50;99.90;;;;;;5078802;28;20332;-75
2022/07/13 03:44:34;;;;;;;10.38;6.60;;;22.50;99.90;;;;;;5077786;28;20148;-75
2022/07/13 03:47:00;;;;;;;6.65;5.53;;;22.40;99.90;;;;;;5111218;28;20047;-75
2022/07/13 03:49:26;;;;;;;9.95;6.80;;;22.40;99.90;;;;;;5077402;28;20048;-75
2022/07/13 03:51:52;;;;;;;6.63;5.70;;;22.40;99.90;;;;;;5094335;28;20330;-75
2022/07/13 03:54:18;;;;;;;9.48;6.60;;;22.50;99.90;;;;;;5078060;28;20072;-75
2022/07/13 03:56:43;;;;;;;11.20;5.90;;;22.50;99.90;;;;;;5077477;28;20051;-75
2022/07/13 03:59:09;;;;;;;7.20;5.85;;;22.50;99.90;;;;;;5078247;28;20040;-75
2022/07/13 04:01:35;;;;;;;9.57;6.53;;;22.50;99.90;;;;;;5078357;28;20048;-75
2022/07/13 04:04:01;;;;;;;8.15;5.57;;;22.50;99.90;;;;;;5094274;28;20039;-75
2022/07/13 04:06:26;;;;;;;8.57;6.25;;;22.50;99.90;;;;;;5076997;28;20528;-75
2022/07/13 04:08:52;;;;;;;11.13;6.30;;;22.50;99.90;;;;;;5077678;28;20044;-75
2022/07/13 04:11:18;;;;;;;10.68;6.25;;;22.40;99.90;;;;;;5078072;28;20306;-75
2022/07/13 04:13:44;;;;;;;7.63;6.35;;;22.50;99.90;;;;;;5110927;28;20048;-75
2022/07/13 04:16:09;;;;;;;8.35;6.25;;;22.40;99.90;;;;;;5076711;28;20040;-76
2022/07/13 04:18:36;;;;;;;7.65;6.53;;;22.40;99.90;;;;;;5078318;28;20123;-75
2022/07/13 04:21:01;;;;;;;9.32;6.85;;;22.40;99.90;;;;;;5077783;28;20043;-75
2022/07/13 04:23:31;;;;;;;10.95;7.30;;;22.40;99.90;;;;;;5110266;28;20329;-75
2022/07/13 04:25:57;;;;;;;9.95;6.50;;;22.40;99.90;;;;;;5093693;28;20079;-75
2022/07/13 04:28:23;;;;;;;10.25;6.55;;;22.30;99.90;;;;;;5076784;28;20036;-75
2022/07/13 04:30:49;;;;;;;7.93;6.22;;;22.30;99.90;;;;;;5076621;28;20044;-75
2022/07/13 04:33:15;;;;;;;10.20;6.90;;;22.40;99.90;;;;;;5077874;28;20040;-75
2022/07/13 04:35:41;;;;;;;11.40;6.90;;;22.40;99.90;;;;;;5110454;28;20047;-75
2022/07/13 04:38:07;;;;;;;9.45;6.30;;;22.40;99.90;;;;;;5110431;28;20036;-75
2022/07/13 04:40:32;;;;;;;7.70;6.10;;;22.40;99.90;;;;;;5076534;28;20380;-75
2022/07/13 04:42:58;;;;;;;9.27;6.40;;;22.40;99.90;;;;;;5110108;28;20041;-75
2022/07/13 04:45:24;;;;;;;7.07;5.80;;;22.50;99.90;;;;;;5110170;28;20097;-75
2022/07/13 04:47:50;;;;;;;7.85;6.25;;;22.50;99.90;;;;;;5110099;28;20082;-75
2022/07/13 04:50:16;;;;;;;7.97;5.78;;;22.50;99.90;;;;;;5077448;28;20028;-75
2022/07/13 04:52:42;;;;;;;7.15;6.03;;;22.40;99.90;;;;;;5076997;28;20111;-75
2022/07/13 04:55:09;;;;;;;9.85;5.32;;;22.40;99.90;;;;;;5076179;28;20063;-75
2022/07/13 04:57:36;;;;;;;6.13;5.18;;;22.50;99.90;;;;;;5077124;28;20460;-76
2022/07/13 05:00:03;;;;;;;9.57;5.88;;;22.50;99.90;;;;;;5076154;28;20036;-75
2022/07/13 05:02:29;;;;;;;7.28;5.90;;;22.60;99.90;;;;;;5076235;28;20391;-75
2022/07/13 05:04:55;;;;;;;8.32;5.78;;;22.60;99.90;;;;;;5092927;28;20123;-75
2022/07/13 05:07:21;;;;;;;7.15;5.53;;;22.60;99.90;;;;;;5076913;28;20075;-75
2022/07/13 05:09:46;;;;;;;7.13;5.55;;;22.60;99.90;;;;;;5076856;28;20090;-76
2022/07/13 05:12:12;;;;;;;6.65;5.13;;;22.60;99.90;;;;;;5076069;28;20036;-75
2022/07/13 05:14:38;;;;;;;6.25;5.25;;;22.70;99.90;;;;;;5076000;28;20451;-75
2022/07/13 05:17:03;;;;;;;7.00;4.88;;;22.70;99.90;;;;;;5109290;28;20051;-75
2022/07/13 05:19:29;;;;;;;6.50;5.10;;;22.70;99.90;;;;;;5075743;28;20048;-75
2022/07/13 05:21:54;;;;;;;7.32;5.30;;;22.60;99.90;;;;;;5075846;28;20044;-75
2022/07/13 05:24:20;;;;;;;6.32;4.80;;;22.60;99.90;;;;;;5076237;28;20097;-75
2022/07/13 05:26:46;;;;;;;5.50;5.00;;;22.70;99.90;;;;;;5076672;28;20053;-75
2022/07/13 05:29:11;;;;;;;7.97;4.95;;;22.70;99.90;;;;;;5076551;28;20166;-75
2022/07/13 05:31:37;;;;;;;8.73;5.85;;;22.70;99.90;;;;;;5076847;28;20041;-75
2022/07/13 05:34:03;;;;;;;5.97;4.93;;;22.70;99.90;;;;;;5076492;28;20032;-75
2022/07/13 05:36:29;;;;;;;10.10;5.40;;;22.70;99.90;;;;;;5109453;28;20155;-75
2022/07/13 05:38:55;;;;;;;7.00;5.13;;;22.80;99.90;;;;;;5109277;28;20040;-74
2022/07/13 05:41:21;;;;;;;8.45;4.60;;;22.80;99.90;;;;;;5108817;28;20040;-74
2022/07/13 05:43:47;;;;;;;9.25;5.43;;;22.70;99.90;;;;;;5076116;28;20421;-74
2022/07/13 05:46:12;;;;;;;8.82;5.60;;;22.80;99.90;;;;;;5075095;28;20052;-75
2022/07/13 05:48:38;;;;;;;6.03;5.35;;;22.70;99.90;;;;;;5108717;28;20040;-74
2022/07/13 05:51:04;;;;;;;8.55;5.35;;;22.70;99.90;;;;;;5076363;28;20115;-74
2022/07/13 05:53:30;;;;;;;7.43;5.50;;;22.70;99.90;;;;;;5076100;28;20360;-74
2022/07/13 05:55:55;;;;;;;6.38;5.50;;;22.70;99.90;;;;;;5075372;28;20093;-74
2022/07/13 05:58:21;;;;;;;7.40;5.22;;;22.70;99.90;;;;;;5092210;28;20084;-74
2022/07/13 06:00:47;;;;;;;8.65;6.05;;;22.60;99.90;;;;;;5076396;28;20036;-74
2022/07/13 06:03:13;;;;;;;6.85;5.38;;;22.70;99.90;;;;;;5075245;28;20054;-74
2022/07/13 06:05:39;;;;;;;9.65;6.13;;;22.80;99.90;;;;;;5075395;28;20041;-74
2022/07/13 06:08:05;;;;;;;5.82;5.00;;;22.80;99.90;;;;;;5076439;28;20119;-74
2022/07/13 06:10:30;;;;;;;6.50;5.38;;;22.80;99.90;;;;;;5075082;28;20128;-74
2022/07/13 06:12:56;;;;;;;10.07;6.82;;;22.80;99.90;;;;;;5075407;28;20044;-75
2022/07/13 06:15:22;;;;;;;10.13;6.63;;;22.80;99.90;;;;;;5076452;28;20385;-74
2022/07/13 06:17:47;;;;;;;10.82;6.68;;;22.70;99.90;;;;;;5109104;28;20041;-74
2022/07/13 06:20:13;;;;;;;9.52;6.95;;;22.80;99.90;;;;;;5076288;28;20037;-74
2022/07/13 06:22:39;;;;;;;9.75;7.20;;;22.70;99.90;;;;;;5075702;28;20085;-74
2022/07/13 06:25:05;;;;;;;7.80;5.50;;;22.70;99.90;;;;;;5074884;28;20047;-74
2022/07/13 06:27:31;;;;;;;8.30;6.28;;;22.80;99.90;;;;;;5075992;28;20048;-74
2022/07/13 06:29:57;;;;;;;7.50;6.60;;;22.90;99.90;;;;;;5076294;28;20425;-75
2022/07/13 06:32:22;;;;;;;9.05;6.63;;;23.00;99.90;;;;;;5078934;28;20337;-74
2022/07/13 06:34:48;;;;;;;8.27;6.88;;;23.10;99.90;;;;;;5078841;28;20102;-74
2022/07/13 06:37:14;;;;;;;10.63;7.90;;;23.20;99.90;;;;;;5095698;28;20052;-74
2022/07/13 06:39:39;;;;;;;10.80;8.05;;;23.30;99.90;;;;;;5079905;28;20047;-74
2022/07/13 06:42:05;;;;;;;10.05;8.02;;;23.30;99.90;;;;;;5078667;28;20036;-74
2022/07/13 06:44:31;;;;;;;11.88;8.13;;;23.20;99.90;;;;;;5096052;28;20329;-74
2022/07/13 06:46:59;;;;;;;11.48;8.40;;;23.40;99.90;;;;;;5095567;28;20413;-74
2022/07/13 06:49:26;;;;;;;13.27;7.95;;;23.50;99.90;;;;;;5079563;28;20421;-76
2022/07/13 06:51:53;;;;;;;12.02;8.65;;;23.60;99.90;;;;;;5079737;28;20047;-70
2022/07/13 06:54:18;;;;;;;13.43;8.93;;;23.30;99.90;;;;;;5079020;28;20117;-71
2022/07/13 06:56:44;;;;;;;14.63;9.45;;;23.40;99.90;;;;;;5079710;28;20144;-70
2022/07/13 06:59:11;;;;;;;15.05;9.65;;;23.60;99.90;;;;;;5078851;28;20480;-70
2022/07/13 07:01:36;;;;;;;11.90;9.13;;;23.60;99.90;;;;;;5079026;28;20133;-70
2022/07/13 07:04:02;;;;;;;13.85;10.23;;;23.70;99.90;;;;;;5079969;28;20417;-70
2022/07/13 07:06:27;;;;;;;15.48;10.00;;;23.80;99.90;;;;;;5082719;28;20044;-71
2022/07/13 07:08:53;;;;;;;16.70;9.32;;;23.90;99.90;;;;;;5128164;27;20043;-70
2022/07/13 07:11:19;;;;;;;14.10;9.60;;;23.90;99.90;;;;;;5097569;28;20024;-69
2022/07/13 07:13:44;;;;;;;12.63;9.32;;;23.80;99.90;;;;;;5099453;28;20040;-69
2022/07/13 07:16:10;;;;;;;12.38;9.60;;;23.90;99.90;;;;;;5099359;28;20043;-69
2022/07/13 07:18:36;;;;;;;14.75;10.10;;;23.90;99.90;;;;;;5099624;28;20044;-69
2022/07/13 07:21:01;;;;;;;14.45;10.38;;;23.60;99.90;;;;;;5099250;28;20350;-69
2022/07/13 07:23:27;;;;;;;13.15;9.38;;;23.60;99.90;;;;;;5099078;28;20032;-69
2022/07/13 07:25:53;;;;;;;15.50;9.75;;;23.70;99.90;;;;;;5097841;28;20059;-69
2022/07/13 07:28:19;;;;;;;12.82;10.05;;;23.70;99.90;;;;;;5099102;28;20044;-69
2022/07/13 07:30:44;;;;;;;15.07;9.52;;;23.80;99.90;;;;;;5099743;28;20036;-69
2022/07/13 07:33:10;;;;;;;13.18;8.85;;;23.90;99.90;;;;;;5099160;28;20421;-70
2022/07/13 07:35:35;;;;;;;18.50;9.35;;;24.00;99.90;;;;;;5099152;28;20147;-68
2022/07/13 07:38:01;;;;;;;15.25;9.30;;;24.00;99.90;;;;;;5098922;28;20072;-68
2022/07/13 07:40:27;;;;;;;12.10;8.13;;;24.10;99.90;;;;;;5097797;28;20036;-69
2022/07/13 07:42:53;;;;;;;14.88;8.55;;;24.20;99.90;;;;;;5098068;28;20032;-69
2022/07/13 07:45:18;;;;;;;12.70;8.10;;;24.30;99.90;;;;;;5098840;28;20036;-69
2022/07/13 07:47:44;;;;;;;10.75;8.20;;;24.30;99.90;;;;;;5098093;28;20444;-69
2022/07/13 07:50:11;;;;;;;12.23;7.72;;;24.20;99.90;;;;;;5098834;28;20035;-69
2022/07/13 07:52:37;;;;;;;13.75;8.20;;;24.50;99.90;;;;;;5098385;28;20075;-69
2022/07/13 07:55:03;;;;;;;12.57;8.38;;;24.60;99.90;;;;;;5096867;28;20074;-69
2022/07/13 07:57:28;;;;;;;21.05;9.32;;;24.70;99.90;;;;;;5114810;28;20047;-69
2022/07/13 07:59:54;;;;;;;12.68;8.20;;;24.70;99.90;;;;;;5098579;28;20067;-69
2022/07/13 08:02:20;;;;;;;12.00;8.40;;;24.80;99.90;;;;;;5098573;28;20036;-69
2022/07/13 08:04:45;;;;;;;13.25;8.52;;;24.90;99.90;;;;;;5097440;28;20341;-69
2022/07/13 08:07:11;;;;;;;11.63;8.55;;;25.00;99.90;;;;;;5098444;28;20063;-69
2022/07/13 08:09:37;;;;;;;13.15;8.25;;;25.30;99.90;;;;;;5080451;28;20040;-69
2022/07/13 08:12:04;;;;;;;12.23;6.82;;;25.50;99.90;;;;;;5098503;28;20044;-69
2022/07/13 08:14:30;;;;;;;14.30;7.13;;;25.50;99.90;;;;;;5098622;28;20036;-69
2022/07/13 08:16:57;;;;;;;14.20;8.48;;;25.50;99.90;;;;;;5098322;28;20036;-70
2022/07/13 08:19:24;;;;;;;12.77;6.72;;;25.40;99.90;;;;;;5098228;28;20036;-68
2022/07/13 08:21:50;;;;;;;14.75;6.57;;;25.40;99.90;;;;;;5098552;28;20048;-71
2022/07/13 08:24:16;;;;;;;14.48;7.75;;;25.50;99.90;;;;;;5097548;28;20071;-71
2022/07/13 08:26:42;;;;;;;12.38;7.70;;;25.60;99.90;;;;;;5098053;28;20079;-70
2022/07/13 08:29:07;;;;;;;16.50;8.10;;;25.70;99.90;;;;;;5098024;28;20097;-69
2022/07/13 08:31:33;;;;;;;11.95;7.00;;;25.80;99.90;;;;;;5096932;28;20108;-70
2022/07/13 08:39:28;;;;;;;12.55;8.25;;;25.70;99.90;;;;;;5098087;28;20400;-71
2022/07/13 08:41:57;;;;;;;17.13;8.57;;;25.60;99.90;;;;;;5097824;28;20040;-69
2022/07/13 08:44:24;;;;;;;13.05;8.88;;;25.80;99.90;;;;;;5096868;28;20054;-69
2022/07/13 08:46:50;;;;;;;15.68;8.90;;;25.70;99.90;;;;;;5097495;28;20040;-69
2022/07/13 08:49:16;;;;;;;13.75;7.53;;;25.50;99.90;;;;;;5097836;28;20039;-69
2022/07/13 08:51:45;;;;;;;11.05;7.82;;;25.70;99.90;;;;;;5097729;28;20042;-70
2022/07/13 08:54:12;;;;;;;12.77;8.20;;;25.80;99.90;;;;;;5096885;28;20310;-69
2022/07/13 08:56:41;;;;;;;15.75;7.03;;;25.90;99.90;;;;;;5097721;28;20367;-70
2022/07/13 08:59:07;;;;;;;9.40;6.03;;;25.90;99.90;;;;;;5096700;28;20371;-71
2022/07/13 09:01:32;;;;;;;18.27;7.45;;;26.10;99.90;;;;;;5097330;28;20454;-69
2022/07/13 09:03:59;;;;;;;15.20;7.82;;;26.30;99.90;;;;;;5097262;28;20086;-72
2022/07/13 09:06:40;;;;;;;14.65;8.60;;;26.40;99.90;;;;;;5097514;28;20051;-69
2022/07/13 09:09:06;;;;;;;14.07;7.00;;;26.40;99.90;;;;;;5097310;28;20325;-69
2022/07/13 09:11:32;;;;;;;11.43;6.70;;;26.40;99.90;;;;;;5097352;28;20044;-68
2022/07/13 09:13:58;;;;;;;13.60;5.82;;;26.50;99.90;;;;;;5097198;28;20539;-70
2022/07/13 09:16:26;;;;;;;11.70;5.25;;;26.70;99.90;;;;;;5097289;28;20070;-68
2022/07/13 09:19:00;;;;;;;9.23;3.97;;;26.80;99.90;;;;;;5097218;28;20047;-69
2022/07/13 09:21:27;;;;;;;11.10;4.75;;;26.90;99.90;;;;;;5097326;28;20044;-69
2022/07/13 09:24:02;;;;;;;11.15;4.68;;;27.00;99.90;;;;;;5096551;28;20040;-69
2022/07/13 09:26:41;;;;;;;7.72;3.58;;;27.10;99.90;;;;;;5096859;28;20048;-69
2022/07/13 09:29:07;;;;;;;10.20;4.13;;;27.20;99.90;;;;;;5096882;28;20079;-69
2022/07/13 09:31:52;;;;;;;9.27;4.07;;;27.10;99.90;;;;;;5096782;28;20071;-69
2022/07/13 09:34:41;;;;;;;10.77;5.07;;;27.10;99.90;;;;;;5097123;28;20040;-69
2022/07/13 09:37:11;;;;;;;8.93;4.00;;;27.40;99.90;;;;;;5085215;28;20040;-69
2022/07/13 09:40:06;;;;;;;4.95;2.90;;;27.50;99.90;;;;;;5088248;28;20420;-69
2022/07/13 09:42:40;;;;;;;5.22;2.95;;;27.50;99.90;;;;;;5090367;28;20051;-68
2022/07/13 09:47:57;;;;;;;4.38;2.53;;;27.80;99.90;;;;;;5076502;28;20389;-68
2022/07/13 09:50:40;;;;;;;6.45;2.55;;;27.80;99.90;;;;;;5076523;28;20044;-69
2022/07/13 09:53:41;;;;;;;4.65;2.40;;;27.80;99.90;;;;;;5075913;28;20052;-69
2022/07/13 09:56:10;;;;;;;8.80;2.47;;;28.00;99.90;;;;;;5054035;28;20045;-70
2022/07/13 09:58:37;;;;;;;4.35;2.10;;;28.10;99.90;;;;;;5072087;28;20041;-70
2022/07/13 10:01:03;;;;;;;6.75;3.10;;;28.10;99.90;;;;;;5075923;28;20456;-69
2022/07/13 10:03:30;;;;;;;3.22;2.10;;;28.10;99.90;;;;;;5076971;28;20044;-69
2022/07/13 10:05:58;;;;;;;3.08;1.50;;;28.20;99.90;;;;;;5077521;28;20495;-70
2022/07/13 10:08:24;;;;;;;5.82;2.25;;;28.00;99.90;;;;;;5080323;28;20116;-69
2022/07/13 10:10:52;;;;;;;5.18;2.58;;;28.20;99.90;;;;;;5080049;28;20119;-69
2022/07/13 10:13:18;;;;;;;5.38;1.70;;;28.40;99.90;;;;;;5080275;28;20088;-68
2022/07/13 10:15:45;;;;;;;4.72;1.60;;;28.20;99.90;;;;;;5095999;28;20044;-68
2022/07/13 10:18:32;;;;;;;5.03;1.80;;;28.30;99.90;;;;;;5078961;28;20076;-69
2022/07/13 10:21:16;;;;;;;3.30;1.60;;;28.40;99.90;;;;;;5100013;28;20047;-70
2022/07/13 10:23:47;;;;;;;5.95;1.70;;;28.50;99.90;;;;;;5099844;28;20046;-72
2022/07/13 10:26:24;;;;;;;4.28;2.35;;;28.70;99.90;;;;;;5099965;28;20424;-71
2022/07/13 10:29:10;;;;;;;5.00;2.10;;;28.80;99.90;;;;;;5089344;28;20090;-71
2022/07/13 10:31:37;;;;;;;4.00;2.10;;;28.90;99.90;;;;;;5078410;28;20045;-89
2022/07/13 10:34:10;;;;;;;3.35;1.50;;;29.00;99.90;;;;;;5079200;28;20040;-74
2022/07/13 10:36:51;;;;;;;3.60;1.55;;;28.40;99.90;;;;;;5079962;28;20044;-72
2022/07/13 10:39:18;;;;;;;4.88;1.42;;;28.40;99.90;;;;;;5080126;28;20032;-73
2022/07/13 10:42:15;;;;;;;3.13;1.10;;;29.00;99.90;;;;;;5078714;28;20052;-71
2022/07/13 10:44:42;;;;;;;1.75;0.93;;;29.00;99.80;;;;;;5079885;28;20048;-71
2022/07/13 10:47:11;;;;;;;3.95;1.35;;;29.10;99.60;;;;;;5079878;28;20045;-71
2022/07/13 10:49:48;;;;;;;2.85;1.40;;;29.10;99.40;;;;;;5079725;28;20036;-71
2022/07/13 10:52:22;;;;;;;2.90;1.40;;;29.00;99.80;;;;;;5079687;28;20116;-72
2022/07/13 10:55:03;;;;;;;3.15;1.70;;;29.30;99.80;;;;;;5079075;28;20333;-71
2022/07/13 10:57:37;;;;;;;4.00;1.35;;;29.60;99.80;;;;;;5079682;28;20067;-71
2022/07/13 11:00:23;;;;;;;2.95;1.08;;;29.70;99.50;;;;;;5079711;28;20129;-70
2022/07/13 11:02:49;;;;;;;;;;;29.80;99.70;;;;;;5079809;28;20098;-70
2022/07/13 11:05:20;;;;;;;1.60;1.20;;;30.00;99.30;;;;;;5079511;28;19920;-71
2022/07/13 11:07:50;;;;;;;2.22;1.30;;;30.00;99.30;;;;;;5079241;28;20033;-71
2022/07/13 11:10:26;;;;;;;2.10;1.10;;;30.10;99.10;;;;;;5079191;28;20063;-71
2022/07/13 11:12:58;;;;;;;3.90;1.38;;;30.10;99.00;;;;;;5080161;28;20118;-71
2022/07/13 11:15:41;;;;;;;2.33;1.00;;;30.10;99.10;;;;;;5079183;28;20098;-71
2022/07/13 11:18:24;;;;;;;5.10;2.13;;;30.20;99.10;;;;;;5079417;28;20106;-69
2022/07/13 11:21:10;;;;;;;5.88;1.20;;;30.00;98.40;;;;;;5078178;28;20040;-71
2022/07/13 11:26:48;;;;;;;10.75;3.08;;;30.30;98.90;;;;;;5078873;28;20077;-85
2022/07/13 11:29:22;;;;;;;4.05;1.33;;;30.10;99.20;;;;;;5077805;28;20437;-71
2022/07/13 11:31:55;;;;;;;3.10;1.38;;;30.10;98.70;;;;;;5078883;28;20093;-71
2022/07/13 11:34:22;;;;;;;1.48;1.15;;;29.80;98.50;;;;;;5078808;28;20040;-72
2022/07/13 11:36:48;;;;;;;3.30;1.33;;;29.70;98.80;;;;;;5079072;28;20123;-71
2022/07/13 11:39:27;;;;;;;2.97;1.10;;;29.50;98.70;;;;;;5078955;28;20072;-71
2022/07/13 11:41:59;;;;;;;4.60;1.55;;;29.30;98.80;;;;;;5078568;28;20033;-70
2022/07/13 11:44:29;;;;;;;4.38;1.60;;;29.50;99.10;;;;;;5078773;28;20094;-71
2022/07/13 11:47:03;;;;;;;3.45;1.65;;;29.10;99.10;;;;;;5078656;28;20041;-71
2022/07/13 11:49:45;;;;;;;2.85;1.17;;;28.90;99.10;;;;;;5078607;28;20037;-71
2022/07/13 11:52:24;;;;;;;5.55;1.58;;;29.20;99.50;;;;;;5078630;28;20046;-71
2022/07/13 11:55:03;;;;;;;6.00;2.35;;;29.90;99.90;;;;;;5078047;28;20123;-71
2022/07/13 11:57:30;;;;;;;4.82;1.65;;;30.10;99.90;;;;;;5077703;28;20067;-71
2022/07/13 12:00:08;;;;;;;2.42;1.50;;;30.10;99.90;;;;;;5078286;28;20045;-71
2022/07/13 12:02:37;;;;;;;4.13;1.80;;;30.30;99.80;;;;;;5078291;28;20041;-71
2022/07/13 12:05:03;;;;;;;3.70;1.83;;;30.30;99.90;;;;;;5077515;28;20043;-71
2022/07/13 12:07:30;;;;;;;4.78;1.65;;;30.50;99.70;;;;;;5078245;28;20080;-71
2022/07/13 12:10:00;;;;;;;6.10;2.08;;;30.40;99.70;;;;;;5078452;28;20041;-71
2022/07/13 12:12:30;;;;;;;3.00;1.50;;;30.30;99.90;;;;;;5078063;28;20047;-71
2022/07/13 12:14:57;;;;;;;4.38;2.38;;;30.60;99.90;;;;;;5078105;28;20109;-71
2022/07/13 12:17:24;;;;;;;5.78;1.85;;;30.00;99.90;;;;;;5077038;28;20052;-71
2022/07/13 12:19:51;;;;;;;3.17;2.00;;;29.80;99.90;;;;;;5060079;28;20048;-72
2022/07/13 12:22:22;;;;;;;4.63;1.90;;;30.20;99.90;;;;;;5078223;28;20089;-71
2022/07/13 12:24:47;;;;;;;5.28;1.90;;;30.60;99.90;;;;;;5077715;28;20032;-71
2022/07/13 12:27:40;;;;;;;6.63;2.10;;;30.20;99.90;;;;;;5077617;28;20392;-71
2022/07/13 12:30:13;;;;;;;4.70;1.77;;;30.20;99.90;;;;;;5074357;28;20040;-68
2022/07/13 12:33:09;;;;;;;9.35;1.80;;;30.40;99.90;;;;;;5077608;28;20070;-69
2022/07/13 12:35:40;;;;;;;7.25;1.95;;;30.70;99.90;;;;;;5076643;28;20041;-68
2022/07/13 12:38:08;;;;;;;10.93;1.58;;;30.30;99.90;;;;;;5077576;28;20120;-68
2022/07/13 12:40:40;;;;;;;6.57;1.90;;;30.30;99.90;;;;;;5077601;28;20116;-68
2022/07/13 12:43:21;;;;;;;6.70;1.80;;;30.30;99.90;;;;;;5077390;28;20414;-68
2022/07/13 12:45:49;;;;;;;6.15;1.95;;;30.00;99.90;;;;;;5077639;28;20119;-68
2022/07/13 12:48:17;;;;;;;8.30;1.83;;;29.90;99.90;;;;;;5077567;28;20036;-68
2022/07/13 12:51:00;;;;;;;7.07;1.90;;;30.40;99.90;;;;;;5076276;28;20338;-68
2022/07/13 12:53:50;;;;;;;5.00;1.85;;;30.50;99.90;;;;;;5077189;28;20044;-68
2022/07/13 12:56:21;;;;;;;4.70;1.80;;;30.60;99.90;;;;;;5070201;28;20059;-70
2022/07/13 12:58:49;;;;;;;4.55;1.60;;;30.70;99.90;;;;;;5082504;28;20063;-68
2022/07/13 13:01:30;;;;;;;6.47;1.70;;;31.20;99.90;;;;;;5096224;28;20451;-68